createdAt,value
2022-08-22T00:00:26.609Z,93.71
2022-08-22T00:02:54.059Z,90.29
2022-08-22T00:05:47.696Z,94.69
2022-08-22T00:10:55.464Z,96.75
2022-08-22T00:16:03.999Z,98.31
2022-08-22T00:21:10.784Z,98.44
2022-08-22T00:26:22.166Z,99.81
2022-08-22T00:31:27.497Z,100.00
2022-08-22T00:36:33.092Z,100.00
2022-08-22T00:41:46.161Z,98.99
2022-08-22T00:46:57.139Z,99.30
2022-08-22T00:52:24.092Z,99.37
2022-08-22T00:57:40.276Z,100.00
2022-08-22T01:02:59.657Z,100.00
2022-08-22T01:08:18.077Z,100.00
2022-08-22T01:13:29.364Z,100.00
2022-08-22T01:18:50.248Z,100.00
2022-08-22T01:24:22.266Z,100.00
2022-08-22T01:29:49.868Z,100.00
2022-08-22T01:35:11.433Z,100.00
2022-08-22T01:40:33.019Z,100.00
2022-08-22T01:45:53.923Z,100.00
2022-08-22T01:50:59.505Z,100.00
2022-08-22T01:56:07.170Z,100.00
2022-08-22T02:01:17.801Z,100.00
2022-08-22T02:06:25.413Z,100.00
2022-08-22T02:11:36.275Z,100.00
2022-08-22T02:16:40.872Z,100.00
2022-08-22T02:21:48.762Z,100.00
2022-08-22T02:26:55.234Z,100.00
2022-08-22T02:32:01.843Z,100.00
2022-08-22T02:37:09.596Z,100.00
2022-08-22T02:42:18.298Z,100.00
2022-08-22T02:47:27.851Z,100.00
2022-08-22T02:52:35.961Z,100.00
2022-08-22T02:57:43.860Z,100.00
2022-08-22T03:03:00.266Z,100.00
2022-08-22T03:08:10.046Z,100.00
2022-08-22T03:13:19.634Z,100.00
2022-08-22T03:18:26.295Z,100.00
2022-08-22T03:23:37.614Z,100.00
2022-08-22T03:28:59.721Z,100.00
2022-08-22T03:34:21.427Z,100.00
2022-08-22T03:39:37.200Z,100.00
2022-08-22T03:44:54.199Z,100.00
2022-08-22T03:50:11.784Z,100.00
2022-08-22T03:55:22.665Z,100.00
2022-08-22T04:00:35.909Z,100.00
2022-08-22T04:05:58.349Z,100.00
2022-08-22T04:11:21.582Z,100.00
2022-08-22T04:16:39.398Z,100.00
2022-08-22T04:21:54.325Z,100.00
2022-08-22T04:26:59.053Z,100.00
2022-08-22T04:32:10.634Z,100.00
2022-08-22T04:37:22.419Z,100.00
2022-08-22T04:42:33.015Z,100.00
2022-08-22T04:47:39.079Z,100.00
2022-08-22T04:52:54.121Z,100.00
2022-08-22T04:58:06.524Z,100.00
2022-08-22T05:03:12.711Z,100.00
2022-08-22T05:08:20.957Z,100.00
2022-08-22T05:13:26.089Z,100.00
2022-08-22T05:18:30.164Z,100.00
2022-08-22T05:23:39.547Z,100.00
2022-08-22T05:28:45.479Z,100.00
2022-08-22T05:33:50.911Z,100.00
2022-08-22T05:38:57.813Z,100.00
2022-08-22T05:44:01.192Z,100.00
2022-08-22T05:49:05.901Z,100.00
2022-08-22T05:54:13.955Z,100.00
2022-08-22T05:59:23.170Z,100.00
2022-08-22T06:04:28.390Z,100.00
2022-08-22T06:09:35.497Z,100.00
2022-08-22T06:14:43.300Z,100.00
2022-08-22T06:19:48.139Z,100.00
2022-08-22T06:24:54.082Z,100.00
2022-08-22T06:29:59.655Z,100.00
2022-08-22T06:35:05.019Z,100.00
2022-08-22T06:40:13.336Z,99.91
2022-08-22T06:45:18.304Z,99.47
2022-08-22T06:50:24.372Z,98.27
2022-08-22T06:55:29.767Z,97.57
2022-08-22T07:00:34.543Z,97.05
2022-08-22T07:05:39.091Z,96.30
2022-08-22T07:10:45.237Z,95.91
2022-08-22T07:15:53.737Z,95.27
2022-08-22T07:21:02.862Z,94.13
2022-08-22T07:26:14.899Z,94.16
2022-08-22T07:31:25.520Z,93.39
2022-08-22T07:36:32.097Z,92.73
2022-08-22T07:41:43.363Z,91.88
2022-08-22T07:46:51.811Z,91.54
2022-08-22T07:51:56.629Z,91.16
2022-08-22T07:57:04.370Z,91.00
2022-08-22T08:02:10.092Z,90.27
2022-08-22T08:07:15.973Z,89.78
2022-08-22T08:12:22.151Z,89.29
2022-08-22T08:17:31.408Z,89.41
2022-08-22T08:22:35.627Z,89.34
2022-08-22T08:27:57.385Z,88.33
2022-08-22T08:33:25.486Z,87.45
2022-08-22T08:38:28.546Z,86.96
2022-08-22T08:43:41.699Z,86.54
2022-08-22T08:49:06.528Z,86.26
2022-08-22T08:54:16.189Z,85.13
2022-08-22T08:59:27.311Z,84.66
2022-08-22T09:04:39.073Z,84.04
2022-08-22T09:09:52.301Z,84.41
2022-08-22T09:15:11.901Z,84.54
2022-08-22T09:20:50.291Z,82.95
2022-08-22T09:25:57.224Z,82.39
2022-08-22T09:31:47.492Z,80.81
2022-08-22T09:36:59.927Z,81.30
2022-08-22T09:42:08.438Z,81.29
2022-08-22T09:47:17.717Z,80.39
2022-08-22T09:52:36.782Z,77.08
2022-08-22T09:57:42.303Z,69.03
2022-08-22T10:02:50.256Z,73.31
2022-08-22T10:08:01.656Z,76.46
2022-08-22T10:13:10.796Z,76.31
2022-08-22T10:18:19.204Z,77.44
2022-08-22T10:23:25.267Z,77.75
2022-08-22T10:28:33.744Z,78.36
2022-08-22T10:33:41.125Z,78.99
2022-08-22T10:38:51.033Z,79.26
2022-08-22T10:44:01.475Z,78.77
2022-08-22T10:49:09.287Z,78.56
2022-08-22T10:54:20.319Z,79.30
2022-08-22T10:59:29.180Z,78.07
2022-08-22T11:04:40.660Z,77.22
2022-08-22T11:09:45.072Z,77.23
2022-08-22T11:15:05.687Z,76.96
2022-08-22T11:20:15.773Z,76.55
2022-08-22T11:25:35.904Z,75.71
2022-08-22T11:30:46.550Z,75.19
2022-08-22T11:35:58.062Z,74.84
2022-08-22T11:41:13.126Z,74.52
2022-08-22T11:46:20.014Z,74.07
2022-08-22T11:51:34.129Z,73.86
2022-08-22T11:56:45.175Z,74.39
2022-08-22T12:01:50.840Z,74.02
2022-08-22T12:06:59.353Z,73.87
2022-08-22T12:12:13.283Z,72.66
2022-08-22T12:17:51.146Z,72.51
2022-08-22T12:22:52.436Z,73.11
2022-08-22T12:28:01.603Z,72.62
2022-08-22T12:33:23.062Z,72.78
2022-08-22T12:38:37.431Z,72.67
2022-08-22T12:43:52.115Z,73.13
2022-08-22T12:49:11.239Z,73.82
2022-08-22T12:54:35.332Z,73.06
2022-08-22T12:59:43.176Z,72.61
2022-08-22T13:04:53.552Z,73.77
2022-08-22T13:09:59.234Z,73.95
2022-08-22T13:15:10.945Z,72.64
2022-08-22T13:20:22.882Z,73.44
2022-08-22T13:25:30.933Z,72.92
2022-08-22T13:30:37.725Z,72.73
2022-08-22T13:35:44.760Z,72.85
2022-08-22T13:40:55.536Z,73.22
2022-08-22T13:46:02.005Z,73.60
2022-08-22T13:51:08.143Z,72.65
2022-08-22T13:56:15.682Z,72.25
2022-08-22T14:01:28.747Z,72.06
2022-08-22T14:06:41.554Z,71.84
2022-08-22T14:11:49.446Z,71.45
2022-08-22T14:16:55.646Z,71.80
2022-08-22T14:22:00.217Z,72.70
2022-08-22T14:27:06.432Z,72.66
2022-08-22T14:32:35.117Z,72.50
2022-08-22T14:37:41.628Z,72.49
2022-08-22T14:42:47.007Z,72.29
2022-08-22T14:47:55.061Z,73.18
2022-08-22T14:53:25.315Z,73.15
2022-08-22T14:58:29.221Z,73.72
2022-08-22T15:03:35.141Z,73.62
2022-08-22T15:08:42.453Z,73.80
2022-08-22T15:14:07.378Z,75.00
2022-08-22T15:19:26.451Z,76.62
2022-08-22T15:24:31.315Z,77.11
2022-08-22T15:29:37.460Z,75.85
2022-08-22T15:34:44.352Z,76.42
2022-08-22T15:39:59.745Z,76.62
2022-08-22T15:45:03.355Z,76.79
2022-08-22T15:50:11.403Z,77.42
2022-08-22T15:55:23.585Z,78.73
2022-08-22T16:00:29.329Z,78.41
2022-08-22T16:05:45.511Z,78.67
2022-08-22T16:10:50.794Z,78.92
2022-08-22T16:16:00.085Z,79.03
2022-08-22T16:21:05.437Z,79.40
2022-08-22T16:26:10.668Z,79.37
2022-08-22T16:31:19.507Z,79.62
2022-08-22T16:36:41.126Z,79.72
2022-08-22T16:41:44.912Z,79.14
2022-08-22T16:46:48.602Z,78.38
2022-08-22T16:52:10.149Z,78.44
2022-08-22T16:57:22.432Z,78.25
2022-08-22T17:02:37.485Z,78.75
2022-08-22T17:07:51.066Z,79.28
2022-08-22T17:13:02.955Z,80.24
2022-08-22T17:18:15.048Z,79.18
2022-08-22T17:23:26.102Z,79.66
2022-08-22T17:28:38.797Z,80.36
2022-08-22T17:33:54.224Z,80.88
2022-08-22T17:39:04.801Z,80.69
2022-08-22T17:44:14.446Z,81.39
2022-08-22T17:49:22.384Z,83.26
2022-08-22T17:54:30.131Z,83.71
2022-08-22T17:59:36.081Z,83.33
2022-08-22T18:04:47.247Z,83.71
2022-08-22T18:09:54.121Z,84.44
2022-08-22T18:15:01.134Z,84.69
2022-08-22T18:20:09.033Z,84.06
2022-08-22T18:25:15.484Z,84.58
2022-08-22T18:30:21.723Z,85.07
2022-08-22T18:35:27.314Z,85.82
2022-08-22T18:40:46.909Z,86.10
2022-08-22T18:46:04.045Z,86.29
2022-08-22T18:51:15.887Z,87.53
2022-08-22T18:56:22.940Z,87.24
2022-08-22T19:01:42.192Z,87.29
2022-08-22T19:06:56.167Z,87.86
2022-08-22T19:12:07.435Z,88.42
2022-08-22T19:17:24.063Z,88.65
2022-08-22T19:22:33.783Z,88.88
2022-08-22T19:27:39.582Z,89.98
2022-08-22T19:33:01.515Z,91.24
2022-08-22T19:38:06.100Z,91.58
2022-08-22T19:43:20.374Z,91.80
2022-08-22T19:48:29.593Z,92.53
2022-08-22T19:53:36.967Z,92.99
2022-08-22T19:58:50.471Z,93.86
2022-08-22T20:03:57.383Z,94.30
2022-08-22T20:09:08.283Z,94.96
2022-08-22T20:14:12.409Z,96.23
2022-08-22T20:19:22.349Z,97.62
2022-08-22T20:24:30.546Z,98.26
2022-08-22T20:29:34.992Z,98.56
2022-08-22T20:34:40.105Z,98.73
2022-08-22T20:39:49.924Z,98.05
2022-08-22T20:45:02.374Z,98.46
2022-08-22T20:50:20.425Z,99.62
2022-08-22T20:55:27.334Z,99.91
2022-08-22T21:00:40.945Z,99.18
2022-08-22T21:05:46.358Z,100.00
2022-08-22T21:11:16.145Z,100.00
2022-08-22T21:16:20.335Z,100.00
2022-08-22T21:21:26.233Z,100.00
2022-08-22T21:26:30.804Z,100.00
2022-08-22T21:31:36.332Z,100.00
2022-08-22T21:36:40.658Z,100.00
2022-08-22T21:41:44.696Z,100.00
2022-08-22T21:46:47.813Z,100.00
2022-08-22T21:51:57.044Z,100.00
2022-08-22T21:57:01.347Z,100.00
2022-08-22T22:02:19.200Z,100.00
2022-08-22T22:07:24.627Z,100.00
2022-08-22T22:12:27.625Z,100.00
2022-08-22T22:17:30.574Z,100.00
2022-08-22T22:22:36.932Z,100.00
2022-08-22T22:27:45.789Z,100.00
2022-08-22T22:32:48.780Z,100.00
2022-08-22T22:37:57.020Z,100.00
2022-08-22T22:43:00.015Z,100.00
2022-08-22T22:48:03.336Z,100.00
2022-08-22T22:53:07.943Z,100.00
2022-08-22T22:58:13.640Z,100.00
2022-08-22T23:03:17.650Z,100.00
2022-08-22T23:08:21.959Z,100.00
2022-08-22T23:13:24.919Z,100.00
2022-08-22T23:18:30.683Z,100.00
2022-08-22T23:23:36.559Z,100.00
2022-08-22T23:28:39.902Z,100.00
2022-08-22T23:33:43.194Z,100.00
2022-08-22T23:38:48.124Z,100.00
2022-08-22T23:43:53.369Z,100.00
2022-08-22T23:48:56.333Z,100.00
2022-08-22T23:54:01.235Z,100.00
2022-08-22T23:59:06.024Z,100.00
